createdAt,value
2018-10-01T00:00:45.125Z,99.99
2018-10-01T00:01:45.920Z,99.99
2018-10-01T00:02:45.992Z,99.99
2018-10-01T00:03:46.704Z,99.99
2018-10-01T00:04:47.773Z,99.99
2018-10-01T00:05:48.123Z,99.99
2018-10-01T00:06:49.472Z,99.99
2018-10-01T00:07:50.822Z,99.99
2018-10-01T00:08:50.896Z,99.99
2018-10-01T00:09:51.249Z,99.99
2018-10-01T00:10:51.597Z,99.99
2018-10-01T00:11:52.393Z,99.99
2018-10-01T00:12:53.740Z,99.99
2018-10-01T00:13:54.264Z,99.99
2018-10-01T00:14:54.778Z,99.99
2018-10-01T00:15:55.127Z,99.99
2018-10-01T00:16:56.199Z,99.99
2018-10-01T00:17:56.992Z,99.99
2018-10-01T00:18:57.341Z,99.99
2018-10-01T00:19:58.419Z,99.99
2018-10-01T00:21:00.054Z,99.99
2018-10-01T00:22:01.403Z,99.99
2018-10-01T00:23:01.921Z,99.99
2018-10-01T00:24:02.609Z,99.99
2018-10-01T00:25:04.124Z,99.99
2018-10-01T00:26:05.535Z,99.99
2018-10-01T00:26:16.901Z,99.99
2018-10-01T00:27:17.869Z,99.99
2018-10-01T00:28:19.384Z,99.99
2018-10-01T00:29:20.176Z,99.99
2018-10-01T00:30:20.969Z,99.99
2018-10-01T00:31:22.047Z,99.99
2018-10-01T00:32:22.839Z,99.99
2018-10-01T00:33:24.185Z,99.99
2018-10-01T00:34:24.260Z,99.99
2018-10-01T00:35:26.056Z,99.99
2018-10-01T00:36:27.132Z,99.99
2018-10-01T00:37:28.235Z,99.99
2018-10-01T00:38:28.789Z,99.99
2018-10-01T00:39:29.857Z,99.99
2018-10-01T00:40:30.928Z,99.99
2018-10-01T00:41:31.719Z,99.99
2018-10-01T00:42:32.789Z,99.99
2018-10-01T00:43:33.859Z,99.99
2018-10-01T00:44:34.652Z,99.99
2018-10-01T00:45:35.718Z,99.99
2018-10-01T00:46:36.506Z,99.99
2018-10-01T00:47:37.609Z,99.99
2018-10-01T00:48:38.684Z,99.99
2018-10-01T00:49:39.476Z,99.99
2018-10-01T00:50:40.826Z,99.99
2018-10-01T00:51:41.346Z,99.99
2018-10-01T00:52:42.132Z,99.99
2018-10-01T00:53:43.205Z,99.99
2018-10-01T00:54:44.278Z,99.99
2018-10-01T00:55:44.792Z,99.99
2018-10-01T00:56:45.308Z,99.99
2018-10-01T00:57:46.462Z,99.99
2018-10-01T00:58:47.252Z,99.99
2018-10-01T00:59:48.877Z,99.99
2018-10-01T01:00:49.234Z,99.99
2018-10-01T01:01:50.034Z,99.99
2018-10-01T01:02:50.658Z,99.99
2018-10-01T01:03:51.732Z,99.99
2018-10-01T01:04:52.806Z,99.99
2018-10-01T01:05:53.991Z,99.99
2018-10-01T01:06:54.618Z,99.99
2018-10-01T01:07:55.580Z,99.99
2018-10-01T01:08:56.375Z,99.99
2018-10-01T01:09:57.728Z,99.99
2018-10-01T01:10:58.243Z,99.99
2018-10-01T01:11:59.036Z,99.99
2018-10-01T01:12:59.829Z,99.99
2018-10-01T01:14:00.397Z,99.99
2018-10-01T01:15:00.943Z,99.99
2018-10-01T01:16:02.299Z,99.99
2018-10-01T01:17:03.374Z,99.99
2018-10-01T01:18:04.895Z,99.99
2018-10-01T01:19:05.411Z,99.99
2018-10-01T01:20:06.770Z,99.99
2018-10-01T01:21:07.393Z,99.99
2018-10-01T01:22:07.906Z,99.99
2018-10-01T01:23:08.977Z,99.99
2018-10-01T01:24:09.502Z,99.99
2018-10-01T01:25:10.572Z,99.99
2018-10-01T01:26:11.805Z,99.99
2018-10-01T01:27:12.877Z,99.99
2018-10-01T01:28:14.397Z,99.99
2018-10-01T01:29:15.575Z,99.99
2018-10-01T01:30:16.370Z,99.99
2018-10-01T01:31:17.886Z,99.99
2018-10-01T01:32:18.681Z,99.99
2018-10-01T01:33:19.747Z,99.99
2018-10-01T01:34:20.539Z,99.99
2018-10-01T01:35:21.052Z,99.99
2018-10-01T01:36:22.124Z,99.99
2018-10-01T01:37:23.052Z,99.99
2018-10-01T01:38:23.571Z,99.99
2018-10-01T01:39:24.363Z,99.99
2018-10-01T01:40:25.154Z,99.99
2018-10-01T01:41:26.062Z,99.99
2018-10-01T01:42:26.860Z,99.99
2018-10-01T01:43:28.213Z,99.99
2018-10-01T01:44:28.280Z,99.99
2018-10-01T01:45:28.794Z,99.99
2018-10-01T01:46:30.142Z,99.99
2018-10-01T01:47:30.213Z,99.99
2018-10-01T01:48:30.760Z,99.99
2018-10-01T01:49:31.276Z,99.99
2018-10-01T01:50:31.793Z,99.99
2018-10-01T01:51:32.632Z,99.99
2018-10-01T01:52:33.262Z,99.99
2018-10-01T01:53:33.333Z,99.99
2018-10-01T01:54:34.408Z,99.99
2018-10-01T01:55:35.484Z,99.99
2018-10-01T01:56:36.555Z,99.99
2018-10-01T01:57:38.344Z,99.99
2018-10-01T01:58:39.419Z,99.99
2018-10-01T01:59:40.488Z,99.99
2018-10-01T02:00:41.835Z,99.99
2018-10-01T02:01:41.918Z,99.99
2018-10-01T02:02:42.990Z,99.99
2018-10-01T02:03:44.783Z,99.99
2018-10-01T02:04:45.578Z,99.99
2018-10-01T02:05:46.372Z,99.99
2018-10-01T02:06:47.720Z,99.99
2018-10-01T02:07:48.791Z,99.99
2018-10-01T02:08:49.485Z,99.99
2018-10-01T02:09:50.277Z,99.99
2018-10-01T02:10:51.067Z,99.99
2018-10-01T02:11:52.416Z,99.99
2018-10-01T02:12:52.933Z,99.99
2018-10-01T02:13:53.284Z,99.99
2018-10-01T02:14:54.078Z,99.99
2018-10-01T02:15:55.592Z,99.99
2018-10-01T02:16:56.384Z,99.99
2018-10-01T02:17:56.905Z,99.99
2018-10-01T02:18:58.013Z,99.99
2018-10-01T02:19:58.528Z,99.99
2018-10-01T02:20:59.042Z,99.99
2018-10-01T02:22:00.388Z,99.99
2018-10-01T02:23:01.462Z,99.99
2018-10-01T02:24:02.251Z,99.99
2018-10-01T02:25:03.604Z,99.99
2018-10-01T02:26:04.398Z,99.99
2018-10-01T02:27:04.742Z,99.99
2018-10-01T02:28:05.261Z,99.99
2018-10-01T02:29:05.792Z,99.99
2018-10-01T02:30:07.868Z,99.99
2018-10-01T02:31:09.060Z,99.99
2018-10-01T02:32:10.414Z,99.99
2018-10-01T02:33:10.601Z,99.99
2018-10-01T02:34:11.669Z,99.99
2018-10-01T02:35:12.739Z,99.99
2018-10-01T02:36:12.977Z,99.99
2018-10-01T02:37:14.885Z,99.99
2018-10-01T02:38:15.515Z,99.99
2018-10-01T02:39:16.322Z,99.99
2018-10-01T02:40:16.986Z,99.99
2018-10-01T02:41:17.660Z,99.99
2018-10-01T02:42:18.449Z,99.99
2018-10-01T02:43:20.078Z,99.99
2018-10-01T02:44:20.599Z,99.99
2018-10-01T02:45:21.512Z,99.99
2018-10-01T02:46:22.419Z,99.99
2018-10-01T02:47:23.212Z,99.99
2018-10-01T02:48:24.124Z,99.99
2018-10-01T02:49:25.206Z,99.99
2018-10-01T02:50:26.000Z,99.99
2018-10-01T02:51:27.073Z,99.99
2018-10-01T02:52:27.861Z,99.99
2018-10-01T02:53:28.936Z,99.99
2018-10-01T02:54:30.003Z,99.99
2018-10-01T02:55:31.072Z,99.99
2018-10-01T02:56:32.421Z,99.99
2018-10-01T02:57:33.774Z,99.99
2018-10-01T02:58:33.841Z,99.99
2018-10-01T02:59:34.949Z,99.99
2018-10-01T03:00:35.851Z,99.99
2018-10-01T03:01:36.201Z,99.99
2018-10-01T03:02:37.554Z,99.99
2018-10-01T03:03:38.347Z,99.99
2018-10-01T03:04:38.982Z,99.99
2018-10-01T03:05:39.886Z,99.99
2018-10-01T03:06:40.511Z,99.99
2018-10-01T03:07:41.582Z,99.99
2018-10-01T03:08:42.488Z,99.99
2018-10-01T03:09:43.037Z,99.99
2018-10-01T03:10:43.554Z,99.99
2018-10-01T03:11:44.628Z,99.99
2018-10-01T03:12:45.421Z,99.99
2018-10-01T03:13:45.770Z,99.99
2018-10-01T03:14:46.562Z,99.99
2018-10-01T03:15:48.234Z,99.99
2018-10-01T03:16:48.595Z,99.99
2018-10-01T03:17:49.576Z,99.99
2018-10-01T03:18:50.233Z,99.99
2018-10-01T03:19:51.171Z,99.99
2018-10-01T03:20:51.800Z,99.99
2018-10-01T03:21:52.149Z,99.99
2018-10-01T03:22:52.778Z,99.99
2018-10-01T03:23:53.427Z,99.99
2018-10-01T03:24:54.331Z,99.99
2018-10-01T03:25:55.234Z,99.99
2018-10-01T03:26:55.043Z,99.99
2018-10-01T03:27:56.403Z,99.99
2018-10-01T03:28:56.921Z,99.99
2018-10-01T03:29:58.176Z,99.99
2018-10-01T03:30:59.270Z,99.99
2018-10-01T03:32:00.487Z,99.99
2018-10-01T03:33:01.146Z,99.99
2018-10-01T03:34:01.663Z,99.99
2018-10-01T03:35:02.010Z,99.99
2018-10-01T03:36:02.367Z,99.99
2018-10-01T03:37:03.161Z,99.99
2018-10-01T03:38:04.511Z,99.99
2018-10-01T03:39:05.303Z,99.99
2018-10-01T03:40:06.212Z,99.99
2018-10-01T03:41:07.027Z,99.99
2018-10-01T03:42:07.820Z,99.99
2018-10-01T03:43:08.999Z,99.99
2018-10-01T03:44:10.636Z,99.99
2018-10-01T03:45:10.982Z,99.99
2018-10-01T03:46:11.506Z,99.99
2018-10-01T03:47:12.687Z,99.99
2018-10-01T03:48:13.756Z,99.99
2018-10-01T03:49:14.665Z,99.99
2018-10-01T03:50:15.589Z,99.99
2018-10-01T03:51:16.494Z,99.99
2018-10-01T03:52:16.563Z,99.99
2018-10-01T03:53:17.468Z,99.99
2018-10-01T03:54:18.258Z,99.99
2018-10-01T03:55:19.606Z,99.99
2018-10-01T03:56:20.789Z,99.99
2018-10-01T03:57:21.582Z,99.99
2018-10-01T03:58:22.950Z,99.99
2018-10-01T03:59:23.298Z,99.99
2018-10-01T04:00:24.562Z,99.99
2018-10-01T04:01:26.463Z,99.99
2018-10-01T04:02:26.542Z,99.99
2018-10-01T04:03:27.373Z,99.99
2018-10-01T04:04:27.720Z,99.99
2018-10-01T04:05:28.511Z,99.99
2018-10-01T04:06:30.135Z,99.99
2018-10-01T04:07:31.208Z,99.99
2018-10-01T04:08:32.850Z,99.99
2018-10-01T04:09:33.197Z,99.99
2018-10-01T04:10:34.467Z,99.99
2018-10-01T04:11:36.096Z,99.99
2018-10-01T04:12:36.168Z,99.99
2018-10-01T04:13:36.791Z,99.99
2018-10-01T04:14:38.141Z,99.99
2018-10-01T04:15:39.062Z,99.99
2018-10-01T04:16:39.418Z,99.99
2018-10-01T04:17:39.763Z,99.99
2018-10-01T04:18:39.836Z,99.99
2018-10-01T04:19:40.458Z,99.99
2018-10-01T04:20:41.540Z,99.99
2018-10-01T04:21:41.610Z,99.99
2018-10-01T04:22:42.825Z,99.99
2018-10-01T04:23:42.997Z,99.99
2018-10-01T04:24:43.341Z,99.99
2018-10-01T04:25:44.422Z,99.99
2018-10-01T04:26:45.207Z,99.99
2018-10-01T04:27:46.017Z,99.99
2018-10-01T04:28:47.076Z,99.99
2018-10-01T04:29:48.144Z,99.99
2018-10-01T04:30:48.525Z,99.99
2018-10-01T04:31:48.607Z,99.99
2018-10-01T04:32:49.962Z,99.99
2018-10-01T04:33:50.584Z,99.99
2018-10-01T04:34:51.931Z,99.99
2018-10-01T04:35:52.720Z,99.99
2018-10-01T04:36:53.791Z,99.99
2018-10-01T04:37:54.147Z,99.99
2018-10-01T04:38:54.945Z,99.99
2018-10-01T04:39:56.012Z,99.99
2018-10-01T04:40:57.139Z,99.99
2018-10-01T04:41:58.075Z,99.99
2018-10-01T04:42:58.591Z,99.99
2018-10-01T04:43:59.214Z,99.99
2018-10-01T04:45:00.009Z,99.99
2018-10-01T04:46:01.355Z,99.99
2018-10-01T04:47:01.988Z,99.99
2018-10-01T04:48:02.783Z,99.99
2018-10-01T04:49:03.588Z,99.99
2018-10-01T04:50:04.654Z,99.99
2018-10-01T04:51:05.201Z,99.99
2018-10-01T04:52:05.991Z,99.99
2018-10-01T04:53:06.508Z,99.99
2018-10-01T04:54:07.300Z,99.99
2018-10-01T04:55:08.093Z,99.99
2018-10-01T04:56:09.439Z,99.99
2018-10-01T04:57:09.949Z,99.99
2018-10-01T04:58:12.064Z,99.99
2018-10-01T04:59:12.294Z,99.99
2018-10-01T05:00:12.754Z,99.99
2018-10-01T05:01:14.002Z,99.99
2018-10-01T05:02:15.518Z,99.99
2018-10-01T05:03:15.590Z,99.99
2018-10-01T05:04:16.657Z,99.99
2018-10-01T05:05:18.173Z,99.99
2018-10-01T05:06:19.248Z,99.99
2018-10-01T05:07:20.038Z,99.99
2018-10-01T05:08:20.834Z,99.99
2018-10-01T05:09:21.368Z,99.99
2018-10-01T05:10:22.884Z,99.99
2018-10-01T05:11:23.845Z,99.99
2018-10-01T05:12:24.913Z,99.99
2018-10-01T05:13:25.262Z,99.99
2018-10-01T05:14:26.058Z,99.99
2018-10-01T05:15:26.850Z,99.99
2018-10-01T05:16:28.087Z,99.99
2018-10-01T05:17:29.436Z,99.99
2018-10-01T05:18:30.231Z,99.99
2018-10-01T05:19:30.301Z,99.99
2018-10-01T05:20:31.652Z,99.99
2018-10-01T05:21:32.174Z,99.99
2018-10-01T05:22:32.691Z,99.99
2018-10-01T05:23:34.315Z,99.99
2018-10-01T05:24:34.662Z,99.99
2018-10-01T05:25:35.730Z,99.99
2018-10-01T05:26:36.249Z,99.99
2018-10-01T05:27:37.044Z,99.99
2018-10-01T05:28:37.837Z,99.99
2018-10-01T05:29:39.187Z,99.99
2018-10-01T05:30:39.816Z,99.99
2018-10-01T05:31:40.613Z,99.99
2018-10-01T05:32:40.852Z,99.99
2018-10-01T05:33:42.201Z,99.99
2018-10-01T05:34:43.551Z,99.99
2018-10-01T05:35:43.341Z,99.99
2018-10-01T05:36:44.136Z,99.99
2018-10-01T05:37:45.678Z,99.99
2018-10-01T05:38:46.608Z,99.99
2018-10-01T05:39:47.676Z,99.99
2018-10-01T05:40:48.192Z,99.99
2018-10-01T05:41:49.158Z,99.99
2018-10-01T05:42:50.235Z,99.99
2018-10-01T05:43:51.304Z,99.99
2018-10-01T05:44:52.277Z,99.99
2018-10-01T05:45:53.127Z,99.99
2018-10-01T05:46:54.198Z,99.99
2018-10-01T05:47:55.270Z,99.99
2018-10-01T05:48:56.105Z,99.99
2018-10-01T05:49:57.569Z,99.99
2018-10-01T05:50:57.868Z,99.99
2018-10-01T05:51:59.215Z,99.99
2018-10-01T05:52:59.453Z,99.99
2018-10-01T05:54:00.835Z,99.99
2018-10-01T05:55:02.360Z,99.99
2018-10-01T05:56:02.143Z,99.99
2018-10-01T05:57:02.981Z,99.99
2018-10-01T05:58:03.953Z,99.99
2018-10-01T05:59:04.987Z,99.99
2018-10-01T06:00:05.704Z,99.99
2018-10-01T06:01:06.548Z,99.99
2018-10-01T06:02:06.903Z,99.99
2018-10-01T06:03:08.052Z,99.99
2018-10-01T06:04:08.848Z,99.99
2018-10-01T06:05:09.862Z,99.99
2018-10-01T06:06:10.761Z,99.99
2018-10-01T06:07:10.841Z,99.99
2018-10-01T06:08:11.911Z,99.99
2018-10-01T06:09:12.542Z,99.99
2018-10-01T06:10:13.083Z,99.99
2018-10-01T06:11:13.995Z,99.99
2018-10-01T06:12:15.213Z,99.99
2018-10-01T06:13:16.561Z,99.99
2018-10-01T06:14:17.168Z,99.99
2018-10-01T06:15:17.868Z,99.99
2018-10-01T06:16:18.581Z,99.99
2018-10-01T06:17:18.949Z,99.99
2018-10-01T06:18:19.602Z,99.99
2018-10-01T06:19:20.313Z,99.99
2018-10-01T06:20:20.873Z,99.99
2018-10-01T06:21:21.945Z,99.99
2018-10-01T06:22:23.323Z,99.99
2018-10-01T06:23:24.371Z,99.99
2018-10-01T06:24:25.010Z,99.99
2018-10-01T06:25:25.808Z,99.99
2018-10-01T06:26:25.744Z,99.99
2018-10-01T06:27:26.238Z,99.99
2018-10-01T06:28:27.600Z,99.99
2018-10-01T06:29:29.777Z,99.99
2018-10-01T06:30:29.348Z,99.99
2018-10-01T06:31:30.415Z,99.99
2018-10-01T06:32:30.936Z,99.99
2018-10-01T06:33:32.569Z,99.99
2018-10-01T06:34:32.635Z,99.99
2018-10-01T06:35:33.990Z,99.99
2018-10-01T06:36:35.341Z,99.99
2018-10-01T06:37:35.665Z,99.99
2018-10-01T06:38:36.488Z,99.99
2018-10-01T06:39:37.011Z,99.99
2018-10-01T06:40:37.398Z,99.99
2018-10-01T06:41:39.078Z,99.99
2018-10-01T06:42:40.012Z,99.99
2018-10-01T06:43:41.082Z,99.99
2018-10-01T06:44:41.435Z,99.99
2018-10-01T06:45:42.379Z,99.99
2018-10-01T06:46:43.019Z,99.99
2018-10-01T06:47:45.363Z,99.99
2018-10-01T06:48:46.322Z,99.99
2018-10-01T06:49:47.395Z,99.99
2018-10-01T06:50:48.456Z,99.99
2018-10-01T06:51:49.027Z,99.99
2018-10-01T06:52:50.568Z,99.99
2018-10-01T06:53:51.084Z,99.99
2018-10-01T06:54:51.599Z,99.99
2018-10-01T06:55:52.845Z,99.99
2018-10-01T06:56:54.346Z,99.99
2018-10-01T06:57:54.421Z,99.99
2018-10-01T06:58:55.217Z,99.99
2018-10-01T06:59:56.569Z,99.99
2018-10-01T07:00:56.947Z,99.99
2018-10-01T07:01:57.746Z,99.99
2018-10-01T07:02:58.714Z,99.99
2018-10-01T07:03:59.294Z,99.99
2018-10-01T07:05:00.812Z,99.99
2018-10-01T07:06:02.506Z,99.99
2018-10-01T07:07:02.921Z,99.99
2018-10-01T07:08:03.462Z,99.99
2018-10-01T07:09:04.392Z,99.99
2018-10-01T07:10:04.547Z,99.99
2018-10-01T07:11:06.082Z,99.99
2018-10-01T07:12:06.261Z,99.99
2018-10-01T07:13:07.524Z,99.99
2018-10-01T07:14:08.617Z,99.99
2018-10-01T07:15:08.692Z,99.99
2018-10-01T07:16:09.832Z,99.99
2018-10-01T07:17:11.565Z,99.99
2018-10-01T07:18:11.812Z,99.99
2018-10-01T07:19:12.667Z,99.99
2018-10-01T07:20:13.449Z,99.99
2018-10-01T07:21:14.800Z,99.99
2018-10-01T07:22:17.385Z,99.99
2018-10-01T07:23:17.251Z,99.99
2018-10-01T07:24:17.760Z,99.99
2018-10-01T07:25:18.111Z,99.99
2018-10-01T07:26:18.704Z,99.99
2018-10-01T07:27:19.219Z,99.99
2018-10-01T07:28:20.610Z,99.99
2018-10-01T07:29:21.405Z,99.99
2018-10-01T07:30:23.687Z,99.99
2018-10-01T07:31:23.351Z,99.99
2018-10-01T07:32:25.103Z,99.99
2018-10-01T07:33:25.803Z,99.99
2018-10-01T07:34:26.588Z,99.99
2018-10-01T07:35:27.109Z,99.99
2018-10-01T07:36:27.624Z,99.99
2018-10-01T07:37:28.453Z,99.99
2018-10-01T07:38:29.590Z,99.99
2018-10-01T07:39:30.103Z,99.99
2018-10-01T07:40:30.345Z,99.99
2018-10-01T07:41:31.188Z,99.99
2018-10-01T07:42:31.857Z,99.99
2018-10-01T07:43:32.942Z,99.99
2018-10-01T07:44:33.342Z,99.99
2018-10-01T07:45:34.866Z,99.99
2018-10-01T07:46:35.215Z,99.99
2018-10-01T07:47:36.090Z,99.99
2018-10-01T07:48:37.220Z,99.99
2018-10-01T07:49:38.314Z,99.99
2018-10-01T07:50:39.490Z,99.99
2018-10-01T07:51:40.723Z,99.99
2018-10-01T07:52:41.280Z,99.99
2018-10-01T07:53:42.159Z,99.99
2018-10-01T07:54:42.550Z,99.99
2018-10-01T07:55:43.346Z,99.99
2018-10-01T07:56:44.148Z,99.99
2018-10-01T07:57:45.503Z,99.99
2018-10-01T07:58:46.298Z,99.99
2018-10-01T07:59:48.513Z,99.99
2018-10-01T08:00:49.291Z,99.99
2018-10-01T08:01:50.531Z,99.99
2018-10-01T08:02:51.927Z,99.99
2018-10-01T08:03:51.620Z,99.99
2018-10-01T08:04:52.854Z,99.99
2018-10-01T08:05:53.457Z,99.99
2018-10-01T08:06:54.265Z,99.99
2018-10-01T08:07:55.756Z,99.99
2018-10-01T08:08:56.997Z,99.99
2018-10-01T08:09:57.342Z,99.99
2018-10-01T08:10:57.859Z,99.99
2018-10-01T08:11:59.460Z,99.99
2018-10-01T08:13:00.331Z,99.99
2018-10-01T08:14:01.423Z,99.99
2018-10-01T08:15:01.988Z,99.99
2018-10-01T08:16:02.794Z,99.99
2018-10-01T08:17:03.868Z,99.99
2018-10-01T08:18:04.387Z,99.99
2018-10-01T08:19:05.463Z,99.99
2018-10-01T08:20:06.826Z,99.99
2018-10-01T08:21:07.412Z,99.99
2018-10-01T08:22:08.273Z,99.99
2018-10-01T08:23:09.068Z,99.99
2018-10-01T08:24:10.040Z,99.99
2018-10-01T08:25:11.113Z,99.99
2018-10-01T08:26:12.258Z,99.99
2018-10-01T08:27:13.113Z,99.99
2018-10-01T08:28:13.749Z,99.99
2018-10-01T08:29:14.692Z,99.99
2018-10-01T08:30:14.492Z,99.99
2018-10-01T08:31:15.288Z,99.99
2018-10-01T08:32:15.884Z,99.99
2018-10-01T08:33:15.706Z,99.99
2018-10-01T08:34:16.664Z,99.99
2018-10-01T08:35:18.461Z,99.99
2018-10-01T08:36:18.959Z,99.99
2018-10-01T08:37:20.039Z,99.99
2018-10-01T08:38:21.519Z,99.99
2018-10-01T08:39:21.390Z,99.99
2018-10-01T08:40:22.552Z,99.99
2018-10-01T08:41:23.672Z,99.99
2018-10-01T08:42:24.115Z,99.99
2018-10-01T08:43:25.224Z,99.99
2018-10-01T08:44:26.171Z,99.99
2018-10-01T08:45:26.515Z,99.99
2018-10-01T08:46:27.596Z,99.99
2018-10-01T08:47:28.306Z,99.99
2018-10-01T08:48:29.663Z,99.99
2018-10-01T08:49:30.182Z,99.99
2018-10-01T08:50:31.731Z,99.99
2018-10-01T08:51:32.517Z,99.99
2018-10-01T08:52:33.278Z,99.99
2018-10-01T08:53:35.017Z,99.99
2018-10-01T08:54:35.442Z,99.99
2018-10-01T08:55:36.666Z,99.99
2018-10-01T08:56:38.958Z,99.99
2018-10-01T08:57:38.761Z,99.99
2018-10-01T08:58:39.390Z,99.99
2018-10-01T08:59:40.903Z,99.99
2018-10-01T09:00:40.989Z,99.99
2018-10-01T09:01:42.061Z,99.99
2018-10-01T09:02:43.133Z,99.99
2018-10-01T09:03:44.209Z,99.99
2018-10-01T09:04:45.315Z,99.99
2018-10-01T09:05:46.387Z,99.99
2018-10-01T09:06:47.917Z,99.99
2018-10-01T09:07:48.447Z,99.99
2018-10-01T09:08:48.964Z,99.99
2018-10-01T09:09:49.549Z,99.99
2018-10-01T09:10:50.175Z,99.99
2018-10-01T09:11:50.416Z,99.99
2018-10-01T09:12:51.491Z,99.99
2018-10-01T09:13:52.372Z,99.99
2018-10-01T09:14:53.098Z,99.99
2018-10-01T09:15:54.071Z,99.99
2018-10-01T09:16:55.695Z,99.99
2018-10-01T09:17:56.456Z,99.99
2018-10-01T09:18:57.808Z,99.99
2018-10-01T09:19:58.927Z,99.99
2018-10-01T09:20:59.988Z,99.99
2018-10-01T09:22:00.513Z,99.99
2018-10-01T09:23:02.063Z,99.99
2018-10-01T09:24:02.852Z,99.99
2018-10-01T09:25:03.402Z,99.99
2018-10-01T09:26:04.236Z,99.99
2018-10-01T09:27:05.994Z,99.99
2018-10-01T09:28:06.236Z,99.99
2018-10-01T09:29:07.350Z,99.99
2018-10-01T09:30:07.980Z,99.99
2018-10-01T09:31:10.200Z,99.99
2018-10-01T09:32:10.433Z,99.99
2018-10-01T09:33:10.582Z,99.99
2018-10-01T09:34:11.376Z,99.99
2018-10-01T09:35:12.764Z,99.99
2018-10-01T09:36:13.460Z,99.99
2018-10-01T09:37:14.253Z,99.99
2018-10-01T09:38:15.458Z,99.99
2018-10-01T09:39:16.086Z,99.99
2018-10-01T09:40:16.724Z,99.99
2018-10-01T09:41:17.213Z,99.99
2018-10-01T09:42:17.567Z,99.99
2018-10-01T09:43:18.644Z,99.99
2018-10-01T09:44:19.899Z,99.99
2018-10-01T09:45:20.764Z,99.99
2018-10-01T09:46:21.738Z,99.99
2018-10-01T09:47:22.499Z,99.99
2018-10-01T09:48:23.576Z,99.99
2018-10-01T09:49:24.648Z,99.99
2018-10-01T09:50:25.797Z,99.99
2018-10-01T09:51:26.079Z,99.99
2018-10-01T09:52:28.467Z,99.99
2018-10-01T09:53:28.476Z,99.99
2018-10-01T09:54:29.266Z,99.99
2018-10-01T09:55:30.343Z,99.99
2018-10-01T09:56:30.862Z,99.99
2018-10-01T09:57:31.166Z,99.99
2018-10-01T09:58:32.417Z,99.99
2018-10-01T09:59:32.777Z,99.99
2018-10-01T10:00:33.131Z,99.99
2018-10-01T10:01:33.366Z,99.99
2018-10-01T10:02:34.178Z,99.99
2018-10-01T10:03:35.145Z,99.99
2018-10-01T10:04:37.073Z,99.99
2018-10-01T10:05:36.643Z,99.99
2018-10-01T10:06:37.604Z,99.99
2018-10-01T10:07:38.122Z,99.99
2018-10-01T10:08:40.237Z,99.99
2018-10-01T10:09:39.804Z,99.99
2018-10-01T10:10:40.317Z,99.99
2018-10-01T10:11:41.553Z,99.99
2018-10-01T10:12:42.075Z,99.99
2018-10-01T10:13:43.146Z,99.99
2018-10-01T10:14:44.507Z,99.99
2018-10-01T10:15:44.613Z,99.99
2018-10-01T10:16:46.231Z,99.99
2018-10-01T10:17:46.229Z,99.99
2018-10-01T10:18:48.330Z,99.99
2018-10-01T10:19:49.132Z,99.99
2018-10-01T10:20:50.488Z,99.99
2018-10-01T10:21:50.563Z,99.99
2018-10-01T10:22:51.649Z,99.99
2018-10-01T10:23:52.706Z,99.99
2018-10-01T10:24:54.887Z,99.99
2018-10-01T10:25:54.603Z,99.99
2018-10-01T10:26:56.304Z,99.99
2018-10-01T10:27:56.883Z,99.99
2018-10-01T10:28:57.379Z,99.99
2018-10-01T10:29:58.173Z,99.99
2018-10-01T10:30:59.536Z,99.99
2018-10-01T10:32:00.716Z,99.99
2018-10-01T10:33:01.850Z,99.99
2018-10-01T10:34:02.664Z,99.99
2018-10-01T10:35:03.523Z,99.99
2018-10-01T10:36:04.033Z,99.99
2018-10-01T10:37:05.495Z,99.99
2018-10-01T10:38:06.084Z,99.99
2018-10-01T10:39:06.757Z,99.99
2018-10-01T10:40:07.363Z,99.99
2018-10-01T10:41:08.527Z,99.99
2018-10-01T10:42:09.385Z,99.99
2018-10-01T10:43:09.950Z,99.99
2018-10-01T10:44:11.986Z,99.99
2018-10-01T10:45:12.595Z,99.99
2018-10-01T10:46:13.288Z,99.99
2018-10-01T10:47:14.360Z,99.99
2018-10-01T10:48:15.415Z,99.99
2018-10-01T10:49:16.349Z,99.99
2018-10-01T10:50:18.206Z,99.99
2018-10-01T10:51:18.354Z,99.99
2018-10-01T10:52:19.143Z,99.99
2018-10-01T10:53:19.937Z,99.99
2018-10-01T10:54:20.321Z,99.99
2018-10-01T10:55:20.841Z,99.99
2018-10-01T10:56:05.994Z,99.99
2018-10-01T10:57:07.060Z,99.99
2018-10-01T10:58:07.022Z,99.99
2018-10-01T10:59:08.100Z,99.99
2018-10-01T11:00:09.112Z,99.99
2018-10-01T11:01:09.594Z,99.99
2018-10-01T11:02:10.465Z,99.99
2018-10-01T11:03:11.140Z,99.99
2018-10-01T11:04:12.498Z,99.99
2018-10-01T11:05:13.820Z,99.99
2018-10-01T11:06:15.624Z,99.99
2018-10-01T11:07:17.380Z,99.99
2018-10-01T11:08:17.947Z,99.99
2018-10-01T11:09:17.633Z,99.99
2018-10-01T11:10:18.705Z,99.99
2018-10-01T11:11:19.501Z,99.99
2018-10-01T11:12:20.333Z,99.99
2018-10-01T11:13:21.418Z,99.99
2018-10-01T11:14:23.758Z,99.99
2018-10-01T11:15:23.566Z,99.99
2018-10-01T11:16:23.527Z,99.99
2018-10-01T11:17:24.982Z,99.99
2018-10-01T11:18:25.969Z,99.99
2018-10-01T11:19:26.609Z,99.99
2018-10-01T11:20:28.797Z,99.99
2018-10-01T11:21:27.939Z,99.99
2018-10-01T11:22:29.037Z,99.99
2018-10-01T11:23:30.439Z,99.99
2018-10-01T11:24:30.638Z,99.99
2018-10-01T11:25:32.617Z,99.99
2018-10-01T11:26:33.374Z,99.99
2018-10-01T11:27:33.958Z,99.99
2018-10-01T11:28:34.830Z,99.99
2018-10-01T11:29:36.878Z,99.99
2018-10-01T11:30:37.884Z,99.99
2018-10-01T11:31:39.656Z,99.99
2018-10-01T11:32:40.108Z,99.99
2018-10-01T11:33:40.990Z,99.99
2018-10-01T11:34:42.081Z,99.99
2018-10-01T11:35:42.385Z,99.99
2018-10-01T11:36:43.179Z,99.99
2018-10-01T11:37:43.869Z,99.99
2018-10-01T11:38:44.669Z,99.99
2018-10-01T11:39:46.946Z,99.99
2018-10-01T11:40:49.706Z,99.99
2018-10-01T11:40:59.367Z,99.99
2018-10-01T11:42:00.990Z,99.99
2018-10-01T11:43:00.758Z,99.99
2018-10-01T11:44:01.551Z,99.99
2018-10-01T11:45:03.029Z,99.99
2018-10-01T11:46:03.960Z,99.99
2018-10-01T11:47:04.760Z,99.99
2018-10-01T11:48:05.997Z,99.99
2018-10-01T11:49:06.792Z,99.99
2018-10-01T11:50:07.702Z,99.99
2018-10-01T11:51:08.970Z,99.99
2018-10-01T11:52:10.188Z,99.99
2018-10-01T11:53:10.222Z,99.99
2018-10-01T11:54:10.376Z,99.99
2018-10-01T11:55:10.690Z,99.99
2018-10-01T11:56:11.520Z,99.99
2018-10-01T11:57:13.348Z,99.99
2018-10-01T11:58:14.432Z,99.99
2018-10-01T11:59:14.952Z,99.99
2018-10-01T12:00:18.471Z,99.99
2018-10-01T12:01:17.187Z,99.99
2018-10-01T12:02:17.475Z,99.99
2018-10-01T12:03:20.086Z,99.99
2018-10-01T12:04:19.834Z,99.99
2018-10-01T12:05:21.326Z,99.99
2018-10-01T12:06:22.431Z,99.99
2018-10-01T12:07:23.244Z,99.99
2018-10-01T12:08:23.788Z,99.99
2018-10-01T12:09:24.954Z,99.99
2018-10-01T12:10:26.243Z,99.99
2018-10-01T12:11:27.310Z,99.99
2018-10-01T12:12:28.303Z,99.99
2018-10-01T12:13:28.541Z,99.99
2018-10-01T12:14:29.386Z,99.99
2018-10-01T12:15:30.879Z,99.99
2018-10-01T12:16:30.954Z,99.99
2018-10-01T12:17:31.604Z,99.99
2018-10-01T12:18:32.406Z,99.99
2018-10-01T12:19:32.928Z,99.99
2018-10-01T12:20:33.751Z,99.7
2018-10-01T12:21:35.874Z,99.41
2018-10-01T12:22:36.085Z,99.99
2018-10-01T12:23:36.610Z,99.99
2018-10-01T12:24:38.806Z,99.99
2018-10-01T12:25:38.399Z,96.56
2018-10-01T12:26:39.473Z,96.08
2018-10-01T12:27:40.796Z,98.36
2018-10-01T12:28:41.807Z,99.41
2018-10-01T12:29:43.542Z,98.75
2018-10-01T12:30:44.182Z,99.99
2018-10-01T12:31:45.264Z,99.99
2018-10-01T12:32:46.572Z,99.99
2018-10-01T12:33:47.590Z,99.99
2018-10-01T12:34:50.187Z,99.99
2018-10-01T12:35:50.025Z,99.99
2018-10-01T12:36:50.845Z,99.99
2018-10-01T12:37:51.725Z,99.99
2018-10-01T12:38:53.600Z,99.99
2018-10-01T12:39:54.308Z,99.99
2018-10-01T12:40:55.872Z,99.99
2018-10-01T12:41:56.625Z,99.99
2018-10-01T12:42:59.708Z,99.99
2018-10-01T12:43:59.072Z,99.99
2018-10-01T12:44:59.653Z,99.99
2018-10-01T12:46:00.811Z,99.99
2018-10-01T12:47:02.084Z,99.99
2018-10-01T12:48:03.168Z,99.99
2018-10-01T12:49:03.522Z,99.99
2018-10-01T12:50:05.014Z,99.99
2018-10-01T12:51:05.550Z,99.99
2018-10-01T12:52:06.663Z,99.99
2018-10-01T12:53:08.378Z,99.99
2018-10-01T12:54:08.894Z,99.99
2018-10-01T12:55:09.415Z,99.99
2018-10-01T12:56:12.043Z,99.41
2018-10-01T12:57:14.092Z,99.13
2018-10-01T12:58:13.772Z,99.8
2018-10-01T12:59:14.168Z,99.99
2018-10-01T13:00:15.798Z,99.99
2018-10-01T13:01:16.491Z,99.99
2018-10-01T13:02:17.620Z,99.51